Time;durP1;ratioP1;P1;durP2;ratioP2;P2;SDS_P1;SDS_P2;PMS_P1;PMS_P2;Temp;Humidity;BMP_temperature;BMP_pressure;BME280_temperature;BME280_humidity;BME280_pressure;Samples;Min_cycle;Max_cycle;Signal;HPM_P1;HPM_P2
2022/12/22 03:26:27;;;;;;;3.70;1.70;;;8.30;70.10;;;;;;4971524;28;46660;-67
2022/12/22 03:28:53;;;;;;;3.30;1.60;;;8.30;70.00;;;;;;4973416;28;46472;-67
2022/12/22 03:31:19;;;;;;;2.17;1.40;;;8.30;70.00;;;;;;4970374;28;46420;-66
2022/12/22 03:33:44;;;;;;;2.00;1.50;;;8.30;70.20;;;;;;4969255;28;46507;-68
2022/12/22 03:36:10;;;;;;;9.07;2.40;;;8.30;70.20;;;;;;4970502;28;46454;-67
2022/12/22 03:38:36;;;;;;;2.40;1.40;;;8.30;70.20;;;;;;4974329;28;46376;-67
2022/12/22 03:41:02;;;;;;;5.17;1.73;;;8.30;70.20;;;;;;4974699;28;46380;-69
2022/12/22 03:46:29;;;;;;;6.20;2.17;;;8.30;70.30;;;;;;4972244;28;46548;-69
2022/12/22 03:49:11;;;;;;;2.50;1.90;;;8.40;70.30;;;;;;4971584;28;46340;-67
2022/12/22 03:51:46;;;;;;;2.97;2.00;;;8.40;70.20;;;;;;4972899;28;46401;-66
2022/12/22 03:54:23;;;;;;;3.20;1.97;;;8.40;70.50;;;;;;4970111;28;46617;-66
2022/12/22 03:56:50;;;;;;;2.77;1.70;;;8.40;70.60;;;;;;4969902;28;46511;-68
2022/12/22 03:59:16;;;;;;;4.40;1.90;;;8.40;70.80;;;;;;4977284;28;46668;-66
2022/12/22 04:01:45;;;;;;;3.30;2.17;;;8.40;70.90;;;;;;4974676;28;46325;-67
2022/12/22 04:04:12;;;;;;;3.20;1.67;;;8.50;71.00;;;;;;4966971;28;46427;-66
2022/12/22 04:06:38;;;;;;;4.93;1.63;;;8.60;71.00;;;;;;4968854;28;46517;-66
2022/12/22 04:09:04;;;;;;;3.07;1.70;;;8.70;71.10;;;;;;4968152;28;46312;-70
2022/12/22 04:14:14;;;;;;;4.00;1.70;;;8.80;71.00;;;;;;4970291;28;46462;-67
2022/12/22 04:16:40;;;;;;;4.03;1.70;;;8.80;71.00;;;;;;4970204;28;46238;-69
2022/12/22 04:19:07;;;;;;;2.67;1.40;;;8.90;71.30;;;;;;4970256;28;46360;-67
2022/12/22 04:21:33;;;;;;;2.50;1.60;;;8.90;71.10;;;;;;4971981;28;46550;-67
2022/12/22 04:23:59;;;;;;;2.13;1.53;;;9.00;71.30;;;;;;4975615;28;46579;-67
2022/12/22 04:26:25;;;;;;;7.43;1.67;;;9.00;71.20;;;;;;4972889;28;46806;-69
2022/12/22 04:28:52;;;;;;;6.10;1.70;;;9.10;72.30;;;;;;4972174;28;46503;-67
2022/12/22 04:31:18;;;;;;;3.17;1.30;;;9.10;71.10;;;;;;4971136;28;46104;-68
2022/12/22 04:33:44;;;;;;;1.93;1.33;;;9.10;71.20;;;;;;4972797;28;46578;-67
2022/12/22 04:36:10;;;;;;;2.10;1.40;;;9.10;71.30;;;;;;4970264;28;46439;-66
2022/12/22 04:38:36;;;;;;;2.70;1.60;;;9.30;71.50;;;;;;4969298;28;46477;-68
2022/12/22 04:41:01;;;;;;;2.30;1.13;;;9.10;71.50;;;;;;4973423;28;46312;-68
2022/12/22 04:43:27;;;;;;;1.77;1.47;;;9.10;71.70;;;;;;4974800;28;46415;-68
2022/12/22 04:45:53;;;;;;;3.60;1.47;;;9.00;72.10;;;;;;4971566;28;47863;-66
2022/12/22 04:48:20;;;;;;;1.60;1.20;;;8.90;72.30;;;;;;4973941;28;46407;-66
2022/12/22 04:50:49;;;;;;;3.10;1.10;;;8.90;72.70;;;;;;4973056;28;46454;-66
2022/12/22 04:53:15;;;;;;;3.23;1.57;;;8.90;72.90;;;;;;4970429;28;46320;-70
2022/12/22 04:55:56;;;;;;;3.23;1.10;;;8.80;72.70;;;;;;4974470;28;47363;-70
2022/12/22 04:58:22;;;;;;;1.87;1.00;;;8.80;72.80;;;;;;4972051;28;46308;-67
2022/12/22 05:00:47;;;;;;;1.77;1.00;;;8.80;73.00;;;;;;4970336;28;46466;-67
2022/12/22 05:03:13;;;;;;;2.00;1.10;;;8.70;72.90;;;;;;4969402;28;46462;-66
2022/12/22 05:05:39;;;;;;;2.07;1.00;;;8.70;73.10;;;;;;4970398;28;46454;-66
2022/12/22 05:08:05;;;;;;;2.03;0.90;;;8.70;73.10;;;;;;4968564;28;46457;-66
2022/12/22 05:10:31;;;;;;;2.43;1.03;;;8.50;72.90;;;;;;4968801;28;46717;-66
2022/12/22 05:12:56;;;;;;;1.70;1.13;;;8.50;73.10;;;;;;4970353;28;46468;-66
2022/12/22 05:15:30;;;;;;;1.60;1.00;;;8.50;73.40;;;;;;4972886;28;46560;-66
2022/12/22 05:17:57;;;;;;;2.40;1.03;;;8.50;73.40;;;;;;4974332;28;45896;-66
2022/12/22 05:20:23;;;;;;;1.80;1.10;;;8.40;73.50;;;;;;4969143;28;45884;-69
2022/12/22 05:22:49;;;;;;;3.40;1.10;;;8.30;73.50;;;;;;4968181;28;46650;-66
2022/12/22 05:25:16;;;;;;;1.30;0.90;;;8.30;73.70;;;;;;4970637;28;46473;-67
2022/12/22 05:27:43;;;;;;;1.77;1.17;;;8.20;73.60;;;;;;4969499;28;46481;-67
2022/12/22 05:30:09;;;;;;;1.87;1.10;;;8.20;73.90;;;;;;4967864;28;46373;-66
2022/12/22 05:32:35;;;;;;;1.50;1.10;;;8.10;73.80;;;;;;4968832;28;46675;-66
2022/12/22 05:35:01;;;;;;;3.40;1.10;;;8.10;73.90;;;;;;4967736;28;47034;-66
2022/12/22 05:37:27;;;;;;;2.00;1.10;;;8.00;74.00;;;;;;4972289;28;46407;-66
2022/12/22 05:39:53;;;;;;;2.43;1.33;;;7.80;74.10;;;;;;4972891;28;46371;-66
2022/12/22 05:42:34;;;;;;;1.60;1.10;;;7.70;74.30;;;;;;4967797;28;46468;-66
2022/12/22 05:45:20;;;;;;;2.07;1.07;;;7.70;74.50;;;;;;4972455;28;46526;-66
2022/12/22 05:47:49;;;;;;;2.63;1.10;;;7.70;74.30;;;;;;4967052;28;46455;-67
2022/12/22 05:50:20;;;;;;;1.87;0.90;;;7.80;73.80;;;;;;4970171;28;46415;-69
2022/12/22 05:52:46;;;;;;;1.30;0.90;;;7.90;73.30;;;;;;4925624;28;1219694;-66
2022/12/22 05:55:13;;;;;;;2.50;1.00;;;8.00;72.80;;;;;;4967506;28;46737;-67
2022/12/22 05:57:39;;;;;;;1.50;0.90;;;8.10;72.30;;;;;;4968499;28;46532;-66
2022/12/22 06:00:14;;;;;;;2.37;1.10;;;8.30;72.10;;;;;;4971364;28;46474;-66
2022/12/22 06:02:41;;;;;;;2.30;1.10;;;8.50;71.70;;;;;;4970603;28;46416;-68
2022/12/22 06:05:07;;;;;;;4.33;0.90;;;8.60;71.70;;;;;;4972225;28;46813;-65
2022/12/22 06:07:33;;;;;;;1.83;1.20;;;8.70;71.50;;;;;;4970678;28;46385;-66
2022/12/22 06:09:59;;;;;;;3.27;0.70;;;8.80;71.40;;;;;;4969574;28;46567;-66
2022/12/22 06:12:25;;;;;;;4.17;1.00;;;8.80;71.20;;;;;;4970194;28;45972;-67
2022/12/22 06:14:50;;;;;;;2.63;0.80;;;8.90;71.10;;;;;;4968637;28;46877;-68
2022/12/22 06:17:16;;;;;;;1.60;0.80;;;9.00;71.00;;;;;;4970495;28;46429;-67
2022/12/22 06:19:42;;;;;;;1.63;0.83;;;9.00;70.80;;;;;;4971685;28;46364;-66
2022/12/22 06:22:07;;;;;;;1.87;0.90;;;8.90;70.30;;;;;;4969245;28;46514;-66
2022/12/22 06:24:33;;;;;;;1.30;0.80;;;8.90;71.40;;;;;;4966650;28;46496;-68
2022/12/22 06:26:59;;;;;;;3.20;1.00;;;8.80;71.70;;;;;;4968492;28;46442;-66
2022/12/22 06:29:24;;;;;;;4.30;1.07;;;8.70;71.80;;;;;;4969467;28;46421;-66
2022/12/22 06:31:50;;;;;;;2.13;0.80;;;8.70;71.80;;;;;;4969179;28;46451;-67
2022/12/22 06:34:18;;;;;;;2.30;1.03;;;8.70;71.80;;;;;;4968930;28;46596;-66
2022/12/22 06:36:47;;;;;;;3.40;0.80;;;8.70;71.70;;;;;;4967516;28;46360;-64
2022/12/22 06:39:14;;;;;;;3.20;0.97;;;8.80;71.40;;;;;;4966847;28;46394;-64
2022/12/22 06:44:26;;;;;;;1.60;0.80;;;8.90;70.90;;;;;;4967524;28;46431;-67
2022/12/22 06:46:52;;;;;;;1.43;0.80;;;9.00;70.50;;;;;;4965778;28;45843;-66
2022/12/22 06:49:19;;;;;;;9.40;1.20;;;9.10;70.20;;;;;;4969380;28;46440;-65
2022/12/22 06:51:45;;;;;;;3.67;1.37;;;9.20;69.60;;;;;;4969117;28;46734;-65
2022/12/22 06:54:10;;;;;;;2.10;0.93;;;9.30;69.30;;;;;;4969944;28;46371;-64
2022/12/22 06:56:36;;;;;;;3.63;1.00;;;9.40;69.00;;;;;;4970195;28;46484;-66
2022/12/22 06:59:02;;;;;;;3.40;1.63;;;9.50;68.60;;;;;;4966719;28;46489;-64
2022/12/22 07:01:28;;;;;;;2.30;0.80;;;9.60;68.30;;;;;;4969310;28;46439;-66
2022/12/22 07:03:53;;;;;;;2.43;0.83;;;9.60;68.10;;;;;;4965931;28;46601;-65
2022/12/22 07:06:19;;;;;;;2.77;1.30;;;9.50;68.30;;;;;;4968416;28;45799;-66
2022/12/22 07:08:46;;;;;;;14.03;1.43;;;9.30;68.70;;;;;;4973221;28;45907;-67
2022/12/22 07:11:11;;;;;;;4.10;1.10;;;9.20;69.10;;;;;;4970778;28;46407;-64
2022/12/22 07:13:37;;;;;;;2.33;1.00;;;9.10;69.30;;;;;;4967219;28;46578;-64
2022/12/22 07:16:05;;;;;;;2.10;0.87;;;9.50;69.80;;;;;;4966096;28;46342;-64
2022/12/22 07:18:33;;;;;;;2.30;1.10;;;9.10;69.50;;;;;;4969151;28;46351;-65
2022/12/22 07:21:00;;;;;;;4.00;1.23;;;9.00;69.50;;;;;;4964949;28;46643;-65
2022/12/22 07:23:26;;;;;;;1.30;0.90;;;9.10;69.50;;;;;;4971209;28;46672;-64
2022/12/22 07:25:52;;;;;;;6.00;1.63;;;9.00;69.40;;;;;;4965641;28;46523;-64
2022/12/22 07:28:18;;;;;;;3.73;1.40;;;9.00;69.50;;;;;;4970888;28;46479;-64
2022/12/22 07:30:44;;;;;;;6.83;1.33;;;9.00;69.60;;;;;;4967467;28;46641;-64
2022/12/22 07:33:09;;;;;;;2.20;0.90;;;9.00;69.60;;;;;;4965467;28;46589;-65
2022/12/22 07:35:35;;;;;;;4.60;1.13;;;9.00;69.50;;;;;;4966505;28;45924;-66
2022/12/22 07:38:01;;;;;;;2.70;1.00;;;9.00;69.50;;;;;;4967657;28;46491;-65
2022/12/22 07:40:27;;;;;;;1.70;0.80;;;9.00;69.40;;;;;;4965913;28;46433;-66
2022/12/22 07:42:59;;;;;;;3.73;1.07;;;9.00;69.40;;;;;;4964998;28;47204;-66
2022/12/22 07:45:26;;;;;;;6.40;3.43;;;9.00;69.30;;;;;;4963962;28;46616;-65
2022/12/22 07:47:58;;;;;;;3.97;1.40;;;9.20;68.60;;;;;;4964334;28;46433;-67
2022/12/22 07:50:24;;;;;;;4.40;1.20;;;9.50;67.90;;;;;;4965735;28;46451;-66
2022/12/22 07:53:03;;;;;;;4.17;1.07;;;9.70;67.10;;;;;;4970923;28;46671;-66
2022/12/22 07:55:34;;;;;;;2.30;0.80;;;9.90;66.30;;;;;;4972162;28;46629;-64
2022/12/22 07:57:59;;;;;;;3.77;1.63;;;10.00;65.00;;;;;;4972822;28;46468;-64
2022/12/22 08:00:26;;;;;;;2.80;1.23;;;10.00;64.80;;;;;;4971227;28;46622;-65
2022/12/22 08:02:54;;;;;;;7.53;1.63;;;9.90;66.10;;;;;;4966923;28;46466;-64
2022/12/22 08:05:20;;;;;;;5.77;0.93;;;9.80;66.30;;;;;;4964851;28;46644;-64
2022/12/22 08:07:47;;;;;;;3.13;1.30;;;9.80;66.50;;;;;;4966401;28;46728;-62
2022/12/22 08:10:14;;;;;;;2.50;1.17;;;9.70;66.70;;;;;;4970393;28;46373;-63
2022/12/22 08:12:40;;;;;;;3.80;1.00;;;9.70;66.60;;;;;;4975385;28;47191;-65
2022/12/22 08:15:07;;;;;;;5.93;1.03;;;9.80;66.40;;;;;;4971381;28;46367;-64
2022/12/22 08:17:33;;;;;;;6.20;1.27;;;9.80;66.10;;;;;;4973302;28;46501;-62
2022/12/22 08:19:59;;;;;;;2.77;0.97;;;9.90;65.70;;;;;;4968403;28;46523;-63
2022/12/22 08:22:25;;;;;;;3.73;1.07;;;9.90;65.40;;;;;;4968507;28;46548;-65
2022/12/22 08:24:53;;;;;;;3.80;0.97;;;9.80;65.30;;;;;;4971133;28;46101;-64
2022/12/22 08:27:46;;;;;;;4.30;1.60;;;9.80;65.60;;;;;;4975225;28;46503;-63
2022/12/22 08:30:12;;;;;;;3.70;1.07;;;9.80;65.20;;;;;;4985298;28;46459;-62
2022/12/22 08:32:39;;;;;;;6.47;1.50;;;10.00;64.40;;;;;;4969009;28;46416;-63
2022/12/22 08:35:07;;;;;;;3.63;1.03;;;10.10;63.80;;;;;;4969418;28;46427;-64
2022/12/22 08:37:39;;;;;;;3.90;1.17;;;10.30;63.00;;;;;;4968783;28;46595;-64
2022/12/22 08:40:11;;;;;;;2.87;1.20;;;10.40;62.40;;;;;;4970887;28;46853;-64
2022/12/22 08:42:37;;;;;;;5.73;1.27;;;10.40;62.10;;;;;;4970417;28;46704;-64
2022/12/22 08:45:04;;;;;;;2.70;1.20;;;10.50;61.80;;;;;;4968806;28;45844;-66
2022/12/22 08:47:30;;;;;;;6.47;1.20;;;10.60;61.70;;;;;;4972163;28;46328;-66
2022/12/22 08:49:55;;;;;;;5.00;1.23;;;10.60;61.70;;;;;;4969686;28;46646;-66
2022/12/22 08:52:21;;;;;;;4.57;1.30;;;10.70;61.50;;;;;;4971788;28;46448;-67
2022/12/22 08:54:47;;;;;;;4.80;1.10;;;10.70;61.10;;;;;;4969032;28;46466;-66
2022/12/22 08:57:13;;;;;;;3.57;1.40;;;10.70;60.90;;;;;;4973336;28;45869;-65
2022/12/22 08:59:38;;;;;;;2.80;1.10;;;10.70;60.70;;;;;;4987396;28;46101;-66
2022/12/22 09:02:04;;;;;;;3.17;1.20;;;10.80;59.50;;;;;;4970748;28;46895;-65
2022/12/22 09:04:32;;;;;;;4.50;1.10;;;10.80;60.50;;;;;;4971952;28;45906;-65
2022/12/22 09:06:59;;;;;;;2.73;1.07;;;10.80;60.20;;;;;;4971519;28;46476;-68
2022/12/22 09:09:24;;;;;;;6.27;1.20;;;10.80;60.00;;;;;;4969581;28;46776;-67
2022/12/22 09:11:50;;;;;;;6.73;1.80;;;10.80;59.90;;;;;;4968860;28;47101;-65
2022/12/22 09:14:16;;;;;;;5.93;1.07;;;10.80;59.70;;;;;;4970943;28;46786;-64
2022/12/22 09:16:42;;;;;;;6.60;1.10;;;10.70;59.80;;;;;;4969288;28;46440;-64
2022/12/22 09:19:08;;;;;;;3.60;1.30;;;10.70;60.10;;;;;;4975009;28;46566;-65
2022/12/22 09:21:34;;;;;;;4.70;1.47;;;10.50;60.50;;;;;;4981563;28;48674;-63
2022/12/22 09:24:00;;;;;;;2.87;1.10;;;10.40;61.20;;;;;;4968625;28;46507;-66
2022/12/22 09:26:27;;;;;;;9.03;1.60;;;10.50;61.50;;;;;;4967498;28;46757;-64
2022/12/22 09:28:53;;;;;;;2.60;1.10;;;10.70;61.20;;;;;;4967199;28;46438;-64
2022/12/22 09:31:21;;;;;;;3.57;1.33;;;11.00;60.50;;;;;;4967199;28;46328;-62
2022/12/22 09:33:46;;;;;;;5.77;1.07;;;11.10;60.20;;;;;;4970603;28;46473;-62
2022/12/22 09:36:18;;;;;;;7.00;1.07;;;11.20;60.30;;;;;;4969496;28;46355;-64
2022/12/22 09:38:43;;;;;;;3.10;1.10;;;11.20;60.10;;;;;;4967484;28;46483;-64
2022/12/22 09:41:35;;;;;;;9.17;1.30;;;11.40;59.90;;;;;;4969994;28;46452;-63
2022/12/22 09:44:04;;;;;;;2.60;1.20;;;11.50;59.50;;;;;;4967104;28;45942;-63
2022/12/22 09:46:34;;;;;;;3.27;1.10;;;11.60;60.30;;;;;;4971263;28;45912;-63
2022/12/22 09:49:00;;;;;;;3.07;1.13;;;11.70;58.80;;;;;;4967556;28;46598;-63
2022/12/22 09:51:26;;;;;;;3.87;1.27;;;11.80;58.70;;;;;;4968728;28;46703;-64
2022/12/22 09:54:00;;;;;;;4.90;1.40;;;11.90;58.50;;;;;;4966211;28;46114;-62
2022/12/22 09:56:27;;;;;;;4.23;1.40;;;12.00;58.20;;;;;;4970512;28;46511;-64
2022/12/22 09:58:53;;;;;;;6.77;1.40;;;12.10;58.00;;;;;;4970060;28;46453;-63
2022/12/22 10:02:00;;;;;;;2.50;1.00;;;12.10;57.50;;;;;;4965131;28;46563;-63
2022/12/22 10:04:40;;;;;;;4.07;1.50;;;12.10;57.20;;;;;;4969782;28;46438;-62
2022/12/22 10:07:29;;;;;;;2.50;1.20;;;12.10;57.00;;;;;;4969143;28;46524;-63
2022/12/22 10:09:55;;;;;;;5.13;1.13;;;12.00;56.90;;;;;;4970162;28;46273;-62
2022/12/22 10:12:25;;;;;;;3.93;1.20;;;12.00;56.90;;;;;;4967854;28;47483;-62
2022/12/22 10:14:52;;;;;;;5.53;1.10;;;11.90;56.60;;;;;;4968830;28;46719;-68
2022/12/22 10:17:20;;;;;;;7.90;1.50;;;11.80;56.60;;;;;;4970396;28;46518;-65
2022/12/22 10:19:47;;;;;;;5.20;1.63;;;11.80;56.40;;;;;;4967734;28;46687;-65
2022/12/22 10:22:38;;;;;;;4.20;1.00;;;11.70;55.10;;;;;;4969698;28;46558;-65
2022/12/22 10:25:05;;;;;;;4.57;1.50;;;11.70;56.10;;;;;;4965791;28;46442;-65
2022/12/22 10:27:34;;;;;;;7.57;1.70;;;11.60;56.30;;;;;;4980319;28;46463;-66
2022/12/22 10:30:22;;;;;;;4.53;1.40;;;11.50;56.50;;;;;;4966693;28;46127;-65
2022/12/22 10:33:13;;;;;;;10.03;2.27;;;11.50;56.60;;;;;;4966627;28;46723;-65
2022/12/22 10:35:46;;;;;;;4.73;1.30;;;11.30;56.60;;;;;;4966111;28;46490;-66
2022/12/22 10:38:29;;;;;;;5.10;1.33;;;11.30;56.90;;;;;;4968929;28;46480;-65
2022/12/22 10:41:03;;;;;;;9.57;1.73;;;11.30;56.80;;;;;;4969190;28;46460;-67
2022/12/22 10:43:36;;;;;;;7.13;1.50;;;11.40;56.60;;;;;;4968116;28;49250;-67
2022/12/22 10:46:03;;;;;;;6.63;1.50;;;11.50;56.10;;;;;;4967427;28;46517;-66
2022/12/22 10:48:33;;;;;;;7.27;1.60;;;11.70;55.60;;;;;;4970251;28;46436;-66
2022/12/22 10:51:00;;;;;;;4.90;2.13;;;11.70;55.20;;;;;;4969686;28;46372;-65
2022/12/22 10:53:45;;;;;;;7.90;1.60;;;11.60;55.20;;;;;;4967842;28;46408;-65
2022/12/22 10:56:19;;;;;;;8.13;2.23;;;11.50;55.50;;;;;;4970311;28;46608;-66
2022/12/22 10:58:54;;;;;;;7.23;1.70;;;11.40;55.90;;;;;;4968989;28;45885;-65
2022/12/22 11:01:26;;;;;;;8.13;1.53;;;11.20;56.20;;;;;;4967255;28;46489;-65
2022/12/22 11:03:52;;;;;;;9.87;1.60;;;11.00;58.00;;;;;;4968487;28;47196;-65
2022/12/22 11:06:18;;;;;;;4.93;1.63;;;10.80;57.60;;;;;;4968409;28;46413;-66
2022/12/22 11:08:44;;;;;;;10.23;1.57;;;10.80;58.20;;;;;;4968405;28;46512;-65
2022/12/22 11:11:13;;;;;;;5.00;1.53;;;10.70;58.50;;;;;;4969855;28;46037;-66
2022/12/22 11:13:56;;;;;;;6.03;1.70;;;10.70;58.60;;;;;;4967412;28;46327;-65
2022/12/22 11:16:36;;;;;;;6.97;1.70;;;10.60;58.80;;;;;;4967662;28;46413;-65
2022/12/22 11:19:37;;;;;;;3.43;1.20;;;10.60;58.80;;;;;;4987609;28;46450;-65
2022/12/22 11:22:34;;;;;;;6.90;1.40;;;10.80;57.60;;;;;;4969470;28;46186;-65
2022/12/22 11:25:18;;;;;;;5.87;1.27;;;10.80;58.60;;;;;;4970215;28;46461;-66
2022/12/22 11:28:03;;;;;;;4.03;1.40;;;11.00;58.30;;;;;;4972594;28;46523;-65
2022/12/22 11:30:44;;;;;;;8.97;1.63;;;11.20;57.90;;;;;;4970754;28;46337;-66
2022/12/22 11:33:27;;;;;;;5.30;1.30;;;11.30;57.70;;;;;;4972915;28;46424;-65
2022/12/22 11:36:08;;;;;;;6.83;2.10;;;11.50;57.70;;;;;;4970855;28;46828;-65
2022/12/22 11:38:45;;;;;;;7.57;1.43;;;11.40;57.40;;;;;;4965467;28;45879;-65
2022/12/22 11:41:36;;;;;;;7.07;1.60;;;11.50;57.50;;;;;;4972227;28;45873;-65
2022/12/22 11:44:16;;;;;;;7.43;2.37;;;11.50;57.30;;;;;;4972146;28;46536;-65
2022/12/22 11:47:01;;;;;;;7.97;1.27;;;11.50;57.60;;;;;;4968289;28;47446;-66
2022/12/22 11:49:55;;;;;;;7.37;1.43;;;11.40;57.70;;;;;;4969231;28;46365;-66
2022/12/22 11:52:46;;;;;;;11.77;1.47;;;11.30;56.80;;;;;;4970491;28;46506;-65
2022/12/22 11:55:29;;;;;;;6.10;1.47;;;11.30;57.80;;;;;;4967977;28;46081;-66
2022/12/22 11:58:41;;;;;;;5.93;1.40;;;11.30;57.80;;;;;;4970269;28;46559;-66
2022/12/22 12:01:44;;;;;;;6.10;1.70;;;11.30;57.60;;;;;;4971288;28;46345;-65
2022/12/22 12:04:34;;;;;;;10.57;1.70;;;11.40;57.40;;;;;;4972855;28;46549;-65
2022/12/22 12:07:15;;;;;;;9.63;2.00;;;11.40;57.00;;;;;;4984203;28;46178;-66
2022/12/22 12:09:57;;;;;;;6.40;1.53;;;11.40;56.80;;;;;;4969156;28;46558;-65
2022/12/22 12:12:41;;;;;;;6.13;1.67;;;11.50;56.50;;;;;;4971082;28;46515;-67
2022/12/22 12:15:15;;;;;;;4.90;1.43;;;11.50;56.30;;;;;;4972776;28;46483;-66
2022/12/22 12:18:01;;;;;;;3.83;1.40;;;11.50;56.20;;;;;;4969701;28;46675;-65
2022/12/22 12:20:37;;;;;;;10.07;1.80;;;11.50;56.30;;;;;;4971143;28;46758;-65
2022/12/22 12:23:15;;;;;;;5.07;1.63;;;11.50;56.20;;;;;;4972751;28;46650;-65
2022/12/22 12:25:52;;;;;;;9.00;1.80;;;11.50;55.80;;;;;;4984593;28;46590;-64
2022/12/22 12:28:42;;;;;;;8.73;1.70;;;11.50;55.10;;;;;;4971729;28;46510;-66
2022/12/22 12:31:14;;;;;;;6.90;1.70;;;11.50;55.00;;;;;;4971245;28;46365;-67
2022/12/22 12:33:50;;;;;;;11.27;1.80;;;11.50;55.00;;;;;;4971466;28;46412;-66
2022/12/22 12:36:34;;;;;;;12.37;1.67;;;11.50;55.00;;;;;;4970812;28;46380;-67
2022/12/22 12:39:11;;;;;;;10.27;2.20;;;11.50;54.80;;;;;;4973724;28;46448;-66
2022/12/22 12:41:56;;;;;;;12.67;1.90;;;11.60;54.50;;;;;;4970761;28;46427;-67
2022/12/22 12:44:28;;;;;;;7.70;1.50;;;11.60;54.50;;;;;;4968895;28;46681;-66
2022/12/22 12:47:04;;;;;;;8.63;1.60;;;11.70;53.80;;;;;;4974443;28;46422;-66
2022/12/22 12:49:32;;;;;;;7.30;1.80;;;11.80;53.30;;;;;;4971808;28;46414;-66
2022/12/22 12:52:00;;;;;;;7.40;1.90;;;11.90;53.40;;;;;;4971945;28;46476;-66
2022/12/22 12:54:28;;;;;;;8.60;1.90;;;11.90;53.40;;;;;;4970951;28;46420;-65
2022/12/22 12:56:58;;;;;;;6.27;1.53;;;11.90;53.40;;;;;;4972899;28;46347;-65
2022/12/22 12:59:39;;;;;;;5.63;1.70;;;11.90;53.40;;;;;;4971092;28;46494;-65
2022/12/22 13:02:27;;;;;;;6.50;1.90;;;11.90;52.30;;;;;;4972245;28;47449;-65
2022/12/22 13:05:11;;;;;;;4.37;1.20;;;11.90;53.10;;;;;;4970580;28;46145;-65
2022/12/22 13:08:09;;;;;;;8.83;2.23;;;11.90;53.00;;;;;;4968165;28;46686;-65
2022/12/22 13:10:41;;;;;;;19.67;1.93;;;11.90;53.20;;;;;;4972451;28;46574;-64
2022/12/22 13:13:22;;;;;;;7.97;1.83;;;11.80;53.30;;;;;;4969399;28;46578;-64
2022/12/22 13:16:03;;;;;;;10.13;1.57;;;11.80;53.30;;;;;;4970871;28;46328;-65
2022/12/22 13:18:40;;;;;;;9.80;2.10;;;11.80;53.30;;;;;;4970861;28;46756;-65
2022/12/22 13:21:12;;;;;;;6.53;1.53;;;11.70;53.20;;;;;;4970005;28;46647;-65
2022/12/22 13:23:59;;;;;;;8.87;1.63;;;11.70;53.20;;;;;;4983202;28;48176;-65
2022/12/22 13:26:31;;;;;;;9.20;2.17;;;11.70;53.20;;;;;;4968997;28;46457;-65
2022/12/22 13:29:01;;;;;;;6.77;1.60;;;11.70;53.30;;;;;;4970680;28;46775;-64
2022/12/22 13:31:39;;;;;;;9.53;1.67;;;11.70;52.90;;;;;;4970077;28;46334;-64
2022/12/22 13:34:33;;;;;;;8.70;1.90;;;11.80;52.90;;;;;;4966540;28;46392;-65
2022/12/22 13:37:23;;;;;;;9.67;2.03;;;11.70;52.60;;;;;;4969180;28;46461;-64
2022/12/22 13:40:16;;;;;;;7.27;1.77;;;11.70;52.70;;;;;;4969781;28;46670;-65
2022/12/22 13:42:46;;;;;;;6.73;1.50;;;11.70;52.70;;;;;;4969242;28;46805;-66
2022/12/22 13:45:22;;;;;;;8.10;2.23;;;11.70;53.00;;;;;;4968010;28;47508;-66
2022/12/22 13:47:49;;;;;;;6.33;1.30;;;11.60;52.30;;;;;;4967524;28;46553;-65
2022/12/22 13:50:32;;;;;;;9.37;1.50;;;11.60;52.70;;;;;;4971818;28;46496;-66
2022/12/22 13:53:00;;;;;;;7.50;1.50;;;11.50;52.70;;;;;;4968887;28;46535;-65
2022/12/22 13:55:29;;;;;;;9.00;1.80;;;11.50;52.40;;;;;;4964621;28;48424;-66
2022/12/22 13:58:05;;;;;;;9.63;1.70;;;11.50;52.30;;;;;;4967292;28;46665;-67
2022/12/22 14:00:30;;;;;;;10.07;1.63;;;11.50;52.30;;;;;;4970397;28;46498;-65
2022/12/22 14:02:56;;;;;;;8.97;1.80;;;11.40;52.30;;;;;;4968691;28;46530;-65
2022/12/22 14:05:21;;;;;;;9.77;1.70;;;11.50;52.60;;;;;;4967229;28;46655;-65
2022/12/22 14:08:00;;;;;;;9.63;1.80;;;11.40;51.90;;;;;;4967563;28;46751;-66
2022/12/22 14:10:32;;;;;;;14.60;2.40;;;11.40;51.90;;;;;;4981956;28;46509;-66
2022/12/22 14:13:00;;;;;;;12.23;2.50;;;11.40;51.80;;;;;;4969487;28;46412;-68
2022/12/22 14:15:25;;;;;;;8.23;1.40;;;11.40;51.80;;;;;;4965072;28;47163;-66
2022/12/22 14:17:51;;;;;;;13.23;2.17;;;11.30;51.60;;;;;;4968632;28;46363;-64
2022/12/22 14:20:28;;;;;;;16.13;2.70;;;11.30;51.60;;;;;;4967885;28;46475;-68
2022/12/22 14:23:04;;;;;;;9.67;2.30;;;11.30;51.70;;;;;;4964644;28;46475;-68
2022/12/22 14:25:41;;;;;;;16.80;2.53;;;11.30;51.60;;;;;;4970799;28;47483;-65
2022/12/22 14:28:33;;;;;;;19.40;2.80;;;11.30;51.60;;;;;;4967367;28;46425;-65
2022/12/22 14:31:01;;;;;;;15.47;2.10;;;11.30;51.70;;;;;;4968329;28;46534;-65
2022/12/22 14:33:30;;;;;;;8.30;2.20;;;11.40;51.60;;;;;;4969628;28;46531;-65
2022/12/22 14:36:05;;;;;;;13.20;2.43;;;11.30;51.60;;;;;;4966003;28;46585;-66
2022/12/22 14:38:46;;;;;;;12.23;3.30;;;11.30;51.70;;;;;;4967028;28;46490;-66
2022/12/22 14:41:41;;;;;;;13.77;2.40;;;11.30;51.90;;;;;;4984336;28;46416;-65
2022/12/22 14:44:33;;;;;;;12.17;2.33;;;11.30;51.70;;;;;;4969400;28;46455;-66
2022/12/22 14:47:10;;;;;;;12.90;2.30;;;11.20;51.70;;;;;;4966726;28;47275;-66
2022/12/22 14:49:53;;;;;;;11.07;2.80;;;11.30;51.60;;;;;;4970909;28;46429;-66
2022/12/22 14:52:55;;;;;;;12.77;2.60;;;11.30;51.80;;;;;;4982970;28;46634;-66
2022/12/22 14:55:21;;;;;;;9.80;1.83;;;11.20;51.90;;;;;;4967842;28;46627;-66
2022/12/22 14:57:53;;;;;;;16.57;3.20;;;11.20;52.00;;;;;;4965426;28;46678;-66
2022/12/22 15:00:21;;;;;;;16.60;2.20;;;11.20;52.10;;;;;;4971234;28;46381;-65
2022/12/22 15:02:54;;;;;;;14.43;2.57;;;11.20;52.20;;;;;;4971719;28;46373;-65
2022/12/22 15:05:25;;;;;;;10.90;2.50;;;11.10;52.10;;;;;;4970025;28;46393;-65
2022/12/22 15:07:53;;;;;;;9.97;2.07;;;11.10;52.00;;;;;;4973837;28;46487;-65
2022/12/22 15:10:18;;;;;;;13.27;3.70;;;11.10;52.60;;;;;;4971607;28;46681;-65
2022/12/22 15:12:46;;;;;;;9.73;2.50;;;11.10;52.60;;;;;;4975420;28;46418;-65
2022/12/22 15:15:15;;;;;;;11.13;2.60;;;11.00;52.60;;;;;;4984966;28;46793;-66
2022/12/22 15:17:44;;;;;;;25.10;11.80;;;11.00;52.60;;;;;;4971457;28;47310;-64
2022/12/22 15:20:24;;;;;;;22.73;6.33;;;11.10;52.70;;;;;;4971469;28;45867;-65
2022/12/22 15:22:50;;;;;;;25.07;9.23;;;11.10;52.70;;;;;;4972923;28;45857;-65
2022/12/22 15:25:21;;;;;;;17.23;4.43;;;11.10;52.70;;;;;;4968283;28;46405;-64
2022/12/22 15:27:47;;;;;;;19.37;5.93;;;11.10;52.70;;;;;;4974573;28;46613;-64
2022/12/22 15:30:18;;;;;;;15.37;3.23;;;11.10;52.70;;;;;;4974290;28;46292;-65
2022/12/22 15:32:44;;;;;;;12.70;2.73;;;11.10;52.70;;;;;;4973256;28;46496;-65
2022/12/22 15:35:24;;;;;;;14.57;1.90;;;11.10;52.70;;;;;;4973919;28;46072;-65
2022/12/22 15:37:50;;;;;;;12.10;3.60;;;11.10;52.60;;;;;;4969136;28;48158;-65
2022/12/22 15:40:21;;;;;;;12.17;2.50;;;11.20;52.70;;;;;;4969379;28;46523;-65
2022/12/22 15:42:47;;;;;;;14.00;2.93;;;11.20;52.70;;;;;;4972920;28;46398;-65
2022/12/22 15:45:14;;;;;;;13.80;2.10;;;11.20;52.70;;;;;;4969032;28;46662;-65
2022/12/22 15:47:46;;;;;;;9.53;2.20;;;11.20;52.80;;;;;;4971473;28;47615;-65
2022/12/22 15:50:26;;;;;;;7.93;1.87;;;11.10;52.70;;;;;;4971495;28;46505;-65
2022/12/22 15:52:55;;;;;;;13.00;2.50;;;11.10;52.70;;;;;;4971808;28;46395;-66
2022/12/22 15:55:21;;;;;;;11.47;3.20;;;11.00;52.60;;;;;;4971626;28;46649;-64
2022/12/22 15:57:55;;;;;;;9.73;3.30;;;11.00;52.60;;;;;;4970975;28;47035;-66
2022/12/22 16:00:21;;;;;;;12.50;3.97;;;10.90;52.50;;;;;;4986777;28;47263;-66
2022/12/22 16:02:47;;;;;;;11.13;3.97;;;10.90;52.80;;;;;;4970901;28;46456;-66
2022/12/22 16:05:14;;;;;;;22.10;5.93;;;10.90;53.30;;;;;;4967756;28;46519;-64
2022/12/22 16:07:40;;;;;;;12.07;4.47;;;10.80;53.30;;;;;;4970293;28;46110;-66
2022/12/22 16:10:21;;;;;;;20.40;3.60;;;10.80;53.60;;;;;;4973590;28;46313;-64
2022/12/22 16:12:52;;;;;;;19.13;3.40;;;10.80;53.90;;;;;;4974495;28;46495;-67
2022/12/22 16:15:19;;;;;;;7.37;2.00;;;10.70;54.20;;;;;;4971704;28;46543;-67
2022/12/22 16:17:45;;;;;;;5.90;2.00;;;10.60;54.40;;;;;;4972061;28;46508;-67
2022/12/22 16:20:11;;;;;;;10.27;2.40;;;10.50;54.80;;;;;;4970825;28;46356;-65
2022/12/22 16:22:38;;;;;;;9.40;3.70;;;10.50;55.00;;;;;;4971341;28;46661;-65
2022/12/22 16:25:10;;;;;;;10.63;2.30;;;10.40;55.30;;;;;;4971084;28;46629;-65
2022/12/22 16:27:36;;;;;;;10.47;2.17;;;10.30;55.50;;;;;;4971968;28;46451;-66
2022/12/22 16:30:02;;;;;;;7.60;2.33;;;10.20;55.70;;;;;;4967202;28;46439;-67
2022/12/22 16:32:31;;;;;;;12.57;2.27;;;10.20;55.70;;;;;;4969699;28;46385;-65
2022/12/22 16:35:08;;;;;;;10.20;1.87;;;10.20;55.60;;;;;;4971948;28;46473;-65
2022/12/22 16:37:34;;;;;;;14.50;2.60;;;10.30;55.40;;;;;;4972168;28;46496;-65
2022/12/22 16:40:00;;;;;;;6.80;2.30;;;10.40;55.30;;;;;;4971056;28;46757;-65
2022/12/22 16:42:25;;;;;;;10.60;2.33;;;10.40;55.00;;;;;;4984589;28;46460;-65
2022/12/22 16:44:51;;;;;;;19.97;2.63;;;10.50;55.10;;;;;;4972279;28;46751;-65